createdAt,value
2022-11-04T00:00:28.514Z,99411.92
2022-11-04T00:03:00.875Z,99411.17
2022-11-04T00:05:29.539Z,99411.48
2022-11-04T00:08:16.477Z,99410.00
2022-11-04T00:11:03.550Z,99413.42
2022-11-04T00:13:31.854Z,99415.60
2022-11-04T00:16:21.853Z,99417.09
2022-11-04T00:18:50.209Z,99418.45
2022-11-04T00:21:37.421Z,99414.91
2022-11-04T00:24:25.623Z,99408.67
2022-11-04T00:27:12.251Z,99406.62
2022-11-04T00:29:40.650Z,99404.36
2022-11-04T00:32:28.151Z,99403.57
2022-11-04T00:34:56.433Z,99400.89
2022-11-04T00:37:24.845Z,99398.85
2022-11-04T00:39:53.482Z,99400.56
2022-11-04T00:42:21.874Z,99395.46
2022-11-04T00:44:50.249Z,99393.89
2022-11-04T00:47:18.620Z,99390.52
2022-11-04T00:49:46.926Z,99386.84
2022-11-04T00:52:15.247Z,99375.83
2022-11-04T00:54:43.643Z,99373.70
2022-11-04T00:57:13.277Z,99368.77
2022-11-04T00:59:42.557Z,99359.58
2022-11-04T01:02:11.254Z,99351.62
2022-11-04T01:04:39.865Z,99345.35
2022-11-04T01:07:08.192Z,99334.93
2022-11-04T01:09:36.683Z,99335.28
2022-11-04T01:12:05.137Z,99334.88
2022-11-04T01:14:33.856Z,99330.41
2022-11-04T01:17:02.257Z,99328.02
2022-11-04T01:19:30.533Z,99325.89
2022-11-04T01:21:58.892Z,99322.55
2022-11-04T01:24:27.474Z,99320.32
2022-11-04T01:26:55.862Z,99317.92
2022-11-04T01:29:24.170Z,99316.73
2022-11-04T01:31:52.838Z,99315.05
2022-11-04T01:34:21.495Z,99315.82
2022-11-04T01:36:49.849Z,99314.29
2022-11-04T01:39:18.192Z,99315.80
2022-11-04T01:41:46.486Z,99317.84
2022-11-04T01:44:42.844Z,99315.30
2022-11-04T01:47:39.310Z,99317.40
2022-11-04T01:50:22.789Z,99306.79
2022-11-04T01:52:56.225Z,99297.14
2022-11-04T01:55:29.171Z,99285.90
2022-11-04T01:58:03.105Z,99278.70
2022-11-04T02:00:32.602Z,99279.64
2022-11-04T02:03:08.675Z,99276.52
2022-11-04T02:05:37.177Z,99281.73
2022-11-04T02:08:08.069Z,99284.57
2022-11-04T02:10:37.622Z,99283.91
2022-11-04T02:13:06.292Z,99280.58
2022-11-04T02:15:50.989Z,99279.01
2022-11-04T02:18:39.202Z,99277.44
2022-11-04T02:21:53.856Z,99278.29
2022-11-04T02:24:52.552Z,99276.42
2022-11-04T02:27:31.764Z,99274.17
2022-11-04T02:30:18.787Z,99276.61
2022-11-04T02:33:08.572Z,99272.91
2022-11-04T02:35:57.214Z,99273.01
2022-11-04T02:38:55.555Z,99266.02
2022-11-04T02:41:31.258Z,99260.91
2022-11-04T02:44:28.922Z,99260.93
2022-11-04T02:47:08.618Z,99254.38
2022-11-04T02:50:06.061Z,99252.98
2022-11-04T02:52:57.819Z,99257.33
2022-11-04T02:55:43.932Z,99255.52
2022-11-04T02:58:38.033Z,99257.66
2022-11-04T03:01:11.154Z,99257.63
2022-11-04T03:03:47.165Z,99260.23
2022-11-04T03:06:21.997Z,99251.84
2022-11-04T03:08:54.652Z,99255.04
2022-11-04T03:11:27.477Z,99248.80
2022-11-04T03:14:16.958Z,99249.84
2022-11-04T03:16:46.707Z,99248.02
2022-11-04T03:19:20.597Z,99244.41
2022-11-04T03:22:18.466Z,99240.33
2022-11-04T03:24:49.350Z,99241.05
2022-11-04T03:27:58.554Z,99240.64
2022-11-04T03:30:33.288Z,99245.01
2022-11-04T03:33:16.875Z,99248.50
2022-11-04T03:35:45.338Z,99242.67
2022-11-04T03:38:13.703Z,99239.99
2022-11-04T03:40:42.368Z,99234.46
2022-11-04T03:43:16.470Z,99235.46
2022-11-04T03:45:45.606Z,99238.02
2022-11-04T03:48:14.103Z,99232.36
2022-11-04T03:50:47.815Z,99225.34
2022-11-04T03:53:22.886Z,99221.19
2022-11-04T03:56:06.706Z,99221.70
2022-11-04T03:58:55.050Z,99221.84
2022-11-04T04:01:45.825Z,99219.48
2022-11-04T04:04:23.041Z,99218.75
2022-11-04T04:06:57.362Z,99218.09
2022-11-04T04:09:39.178Z,99218.47
2022-11-04T04:12:23.424Z,99220.11
2022-11-04T04:14:56.964Z,99224.30
2022-11-04T04:17:36.379Z,99220.34
2022-11-04T04:20:20.705Z,99218.05
2022-11-04T04:22:58.521Z,99213.27
2022-11-04T04:25:48.486Z,99213.73
2022-11-04T04:28:19.465Z,99206.48
2022-11-04T04:30:47.968Z,99205.15
2022-11-04T04:33:18.348Z,99199.14
2022-11-04T04:35:55.343Z,99201.46
2022-11-04T04:38:52.867Z,99199.79
2022-11-04T04:41:48.938Z,99199.38
2022-11-04T04:44:41.450Z,99195.48
2022-11-04T04:47:19.914Z,99188.54
2022-11-04T04:50:00.672Z,99186.43
2022-11-04T04:52:49.639Z,99184.42
2022-11-04T04:55:19.266Z,99185.15
2022-11-04T04:57:49.328Z,99183.48
2022-11-04T05:00:21.049Z,99183.59
2022-11-04T05:02:49.659Z,99186.16
2022-11-04T05:05:19.186Z,99188.42
2022-11-04T05:07:47.871Z,99187.95
2022-11-04T05:10:18.041Z,99184.92
2022-11-04T05:13:05.307Z,99188.89
2022-11-04T05:15:35.612Z,99183.79
2022-11-04T05:18:03.941Z,99179.05
2022-11-04T05:20:34.473Z,99180.19
2022-11-04T05:23:02.956Z,99177.05
2022-11-04T05:25:31.309Z,99173.36
2022-11-04T05:28:01.871Z,99174.46
2022-11-04T05:30:30.249Z,99176.37
2022-11-04T05:33:01.757Z,99176.83
2022-11-04T05:35:34.465Z,99170.54
2022-11-04T05:38:03.071Z,99170.25
2022-11-04T05:40:31.517Z,99174.98
2022-11-04T05:43:00.676Z,99169.15
2022-11-04T05:45:29.600Z,99162.27
2022-11-04T05:48:03.734Z,99157.34
2022-11-04T05:50:33.906Z,99156.88
2022-11-04T05:53:02.369Z,99152.56
2022-11-04T05:55:30.670Z,99146.20
2022-11-04T05:57:59.386Z,99141.33
2022-11-04T06:00:28.308Z,99139.95
2022-11-04T06:02:57.457Z,99141.62
2022-11-04T06:05:27.877Z,99143.10
2022-11-04T06:07:56.844Z,99145.22
2022-11-04T06:10:25.736Z,99145.71
2022-11-04T06:12:54.017Z,99147.67
2022-11-04T06:15:22.644Z,99150.58
2022-11-04T06:17:51.079Z,99154.83
2022-11-04T06:20:19.501Z,99156.08
2022-11-04T06:22:47.890Z,99153.44
2022-11-04T06:25:16.701Z,99154.96
2022-11-04T06:27:45.140Z,99158.41
2022-11-04T06:30:13.516Z,99164.49
2022-11-04T06:32:41.870Z,99165.84
2022-11-04T06:35:10.212Z,99167.09
2022-11-04T06:37:38.936Z,99164.55
2022-11-04T06:40:08.324Z,99164.85
2022-11-04T06:42:37.368Z,99165.86
2022-11-04T06:45:06.289Z,99168.37
2022-11-04T06:47:34.664Z,99165.64
2022-11-04T06:50:03.488Z,99164.38
2022-11-04T06:52:31.777Z,99171.20
2022-11-04T06:55:00.423Z,99171.47
2022-11-04T06:57:28.717Z,99172.59
2022-11-04T06:59:57.250Z,99172.74
2022-11-04T07:02:25.731Z,99175.92
2022-11-04T07:04:54.308Z,99176.44
2022-11-04T07:07:22.745Z,99177.30
2022-11-04T07:09:51.032Z,99174.23
2022-11-04T07:12:19.360Z,99170.11
2022-11-04T07:14:47.677Z,99168.11
2022-11-04T07:17:16.045Z,99167.82
2022-11-04T07:19:45.276Z,99168.92
2022-11-04T07:22:13.624Z,99168.02
2022-11-04T07:24:41.992Z,99160.30
2022-11-04T07:27:11.292Z,99166.02
2022-11-04T07:29:39.908Z,99171.80
2022-11-04T07:32:09.410Z,99171.76
2022-11-04T07:34:38.199Z,99174.56
2022-11-04T07:37:06.671Z,99175.42
2022-11-04T07:39:35.037Z,99173.00
2022-11-04T07:42:03.545Z,99176.10
2022-11-04T07:44:31.883Z,99175.84
2022-11-04T07:47:00.274Z,99181.67
2022-11-04T07:49:28.808Z,99186.80
2022-11-04T07:51:57.200Z,99190.04
2022-11-04T07:54:25.540Z,99194.78
2022-11-04T07:56:54.000Z,99196.30
2022-11-04T07:59:22.303Z,99190.84
2022-11-04T08:01:50.827Z,99193.31
2022-11-04T08:04:20.135Z,99195.52
2022-11-04T08:06:48.603Z,99197.47
2022-11-04T08:09:17.004Z,99192.70
2022-11-04T08:11:45.459Z,99194.08
2022-11-04T08:14:13.792Z,99189.80
2022-11-04T08:16:42.319Z,99192.06
2022-11-04T08:19:11.300Z,99192.31
2022-11-04T08:21:39.896Z,99195.02
2022-11-04T08:24:08.358Z,99193.79
2022-11-04T08:26:36.973Z,99194.70
2022-11-04T08:29:09.208Z,99191.21
2022-11-04T08:31:37.796Z,99189.96
2022-11-04T08:34:08.399Z,99187.20
2022-11-04T08:36:40.969Z,99189.14
2022-11-04T08:39:11.616Z,99186.27
2022-11-04T08:41:43.055Z,99184.06
2022-11-04T08:44:14.993Z,99180.95
2022-11-04T08:46:45.475Z,99176.77
2022-11-04T08:49:19.690Z,99174.98
2022-11-04T08:51:56.290Z,99166.30
2022-11-04T08:54:25.958Z,99162.80
2022-11-04T08:56:54.314Z,99158.15
2022-11-04T08:59:22.979Z,99161.23
2022-11-04T09:01:51.426Z,99162.05
2022-11-04T09:04:20.120Z,99162.67
2022-11-04T09:06:50.914Z,99168.08
2022-11-04T09:09:20.083Z,99160.47
2022-11-04T09:11:48.617Z,99166.77
2022-11-04T09:14:17.995Z,99165.45
2022-11-04T09:16:46.400Z,99163.43
2022-11-04T09:19:15.093Z,99162.27
2022-11-04T09:21:43.772Z,99165.09
2022-11-04T09:24:12.401Z,99168.30
2022-11-04T09:26:40.848Z,99163.52
2022-11-04T09:29:09.966Z,99161.23
2022-11-04T09:31:38.990Z,99154.50
2022-11-04T09:34:08.012Z,99158.14
2022-11-04T09:36:36.451Z,99158.44
2022-11-04T09:39:05.288Z,99159.77
2022-11-04T09:41:43.976Z,99156.60
2022-11-04T09:45:21.203Z,99156.41
2022-11-04T09:47:44.093Z,99153.95
2022-11-04T09:50:25.634Z,99153.36
2022-11-04T09:53:07.492Z,99152.64
2022-11-04T09:55:55.381Z,99158.25
2022-11-04T09:58:24.491Z,99154.95
2022-11-04T10:01:06.494Z,99153.85
2022-11-04T10:04:03.008Z,99148.65
2022-11-04T10:07:26.084Z,99143.05
2022-11-04T10:10:46.104Z,99141.36
2022-11-04T10:13:46.503Z,99134.69
2022-11-04T10:16:52.200Z,99135.23
2022-11-04T10:19:38.023Z,99138.42
2022-11-04T10:22:43.679Z,99130.63
2022-11-04T10:25:23.545Z,99122.16
2022-11-04T10:27:52.517Z,99120.66
2022-11-04T10:30:29.351Z,99120.83
2022-11-04T10:33:37.493Z,99124.05
2022-11-04T10:36:09.565Z,99130.34
2022-11-04T10:38:52.874Z,99136.36
2022-11-04T10:41:24.150Z,99137.79
2022-11-04T10:44:01.591Z,99139.56
2022-11-04T10:47:25.190Z,99140.90
2022-11-04T10:50:27.754Z,99140.23
2022-11-04T10:53:22.781Z,99137.36
2022-11-04T10:56:01.631Z,99136.35
2022-11-04T10:58:35.476Z,99133.13
2022-11-04T11:01:32.696Z,99128.52
2022-11-04T11:04:07.339Z,99127.30
2022-11-04T11:06:36.907Z,99125.51
2022-11-04T11:09:25.780Z,99123.42
2022-11-04T11:12:29.394Z,99128.48
2022-11-04T11:14:55.198Z,99115.96
2022-11-04T11:17:38.457Z,99110.91
2022-11-04T11:20:24.186Z,99107.36
2022-11-04T11:22:54.248Z,99102.96
2022-11-04T11:25:31.298Z,99106.05
2022-11-04T11:28:00.870Z,99103.19
2022-11-04T11:30:58.909Z,99095.36
2022-11-04T11:33:33.435Z,99096.02
2022-11-04T11:36:20.356Z,99098.23
2022-11-04T11:39:14.255Z,99103.29
2022-11-04T11:42:12.250Z,99103.30
2022-11-04T11:44:52.973Z,99100.43
2022-11-04T11:47:25.212Z,99098.45
2022-11-04T11:50:20.442Z,99101.69
2022-11-04T11:52:49.543Z,99098.16
2022-11-04T11:55:27.816Z,99091.41
2022-11-04T12:01:42.487Z,99086.08
2022-11-04T12:10:49.911Z,99083.03
2022-11-04T12:13:29.444Z,99083.46
2022-11-04T12:16:32.043Z,99087.42
2022-11-04T12:19:52.891Z,99096.77
2022-11-04T12:23:05.380Z,99098.80
2022-11-04T12:25:54.563Z,99102.38
2022-11-04T12:28:47.719Z,99100.98
2022-11-04T12:31:34.156Z,99100.94
2022-11-04T12:34:31.651Z,99094.06
2022-11-04T12:37:20.504Z,99091.34
2022-11-04T12:40:15.445Z,99084.85
2022-11-04T12:43:25.443Z,99091.66
2022-11-04T12:46:04.973Z,99092.86
2022-11-04T12:49:10.964Z,99093.75
2022-11-04T12:52:00.488Z,99095.27
2022-11-04T12:55:04.313Z,99094.74
2022-11-04T12:58:02.762Z,99090.91
2022-11-04T13:00:36.043Z,99089.09
2022-11-04T13:03:30.188Z,99090.83
2022-11-04T13:06:06.984Z,99089.14
2022-11-04T13:08:59.088Z,99086.46
2022-11-04T13:11:58.273Z,99093.08
2022-11-04T13:14:59.253Z,99095.04
2022-11-04T13:17:33.853Z,99100.05
2022-11-04T13:20:14.177Z,99096.44
2022-11-04T13:22:48.321Z,99099.02
2022-11-04T13:25:26.576Z,99103.29
2022-11-04T13:27:55.186Z,99102.36
2022-11-04T13:30:39.660Z,99104.66
2022-11-04T13:33:43.718Z,99098.92
2022-11-04T13:36:40.943Z,99096.23
2022-11-04T13:39:34.828Z,99094.47
2022-11-04T13:42:14.903Z,99093.02
2022-11-04T13:44:47.283Z,99096.83
2022-11-04T13:47:54.016Z,99096.38
2022-11-04T13:50:35.483Z,99093.05
2022-11-04T13:53:11.516Z,99095.84
2022-11-04T13:55:50.345Z,99093.48
2022-11-04T13:58:27.110Z,99090.42
2022-11-04T14:01:27.344Z,99091.62
2022-11-04T14:04:14.195Z,99092.48
2022-11-04T14:06:55.987Z,99089.44
2022-11-04T14:09:36.786Z,99090.39
2022-11-04T14:12:11.652Z,99091.38
2022-11-04T14:14:44.767Z,99090.65
2022-11-04T14:17:34.863Z,99089.66
2022-11-04T14:20:09.111Z,99090.19
2022-11-04T14:22:43.433Z,99090.95
2022-11-04T14:25:24.816Z,99094.88
2022-11-04T14:28:01.678Z,99100.61
2022-11-04T14:30:43.658Z,99099.24
2022-11-04T14:33:33.834Z,99097.94
2022-11-04T14:36:22.890Z,99098.85
2022-11-04T14:38:58.133Z,99092.42
2022-11-04T14:41:29.274Z,99089.02
2022-11-04T14:44:03.196Z,99090.69
2022-11-04T14:46:36.428Z,99095.07
2022-11-04T14:49:05.019Z,99097.89
2022-11-04T14:51:40.929Z,99098.65
2022-11-04T14:54:26.400Z,99100.92
2022-11-04T14:57:13.990Z,99094.92
2022-11-04T14:59:42.738Z,99097.48
2022-11-04T15:02:28.862Z,99103.72
2022-11-04T15:05:00.323Z,99111.77
2022-11-04T15:07:38.969Z,99109.98
2022-11-04T15:10:36.849Z,99108.04
2022-11-04T15:13:05.170Z,99112.27
2022-11-04T15:15:47.540Z,99111.05
2022-11-04T15:18:28.067Z,99105.77
2022-11-04T15:21:00.724Z,99105.17
2022-11-04T15:23:39.926Z,99109.47
2022-11-04T15:26:30.386Z,99106.20
2022-11-04T15:29:03.546Z,99107.17
2022-11-04T15:31:33.845Z,99106.80
2022-11-04T15:34:09.135Z,99107.40
2022-11-04T15:36:42.554Z,99106.86
2022-11-04T15:39:20.265Z,99111.36
2022-11-04T15:42:13.663Z,99107.19
2022-11-04T15:44:49.131Z,99111.20
2022-11-04T15:47:17.339Z,99113.08
2022-11-04T15:49:52.154Z,99104.60
2022-11-04T15:52:27.143Z,99096.96
2022-11-04T15:55:00.917Z,99101.09
2022-11-04T15:57:38.235Z,99096.36
2022-11-04T16:00:28.424Z,99095.47
2022-11-04T16:02:59.806Z,99095.41
2022-11-04T16:05:38.174Z,99090.32
2022-11-04T16:08:27.382Z,99090.39
2022-11-04T16:11:18.399Z,99091.23
2022-11-04T16:13:47.349Z,99099.07
2022-11-04T16:16:27.697Z,99102.65
2022-11-04T16:18:57.700Z,99101.14
2022-11-04T16:21:36.215Z,99104.80
2022-11-04T16:24:41.927Z,99101.55
2022-11-04T16:27:11.555Z,99099.89
2022-11-04T16:29:43.936Z,99097.27
2022-11-04T16:32:51.821Z,99099.84
2022-11-04T16:35:26.935Z,99093.55
2022-11-04T16:37:56.586Z,99091.61
2022-11-04T16:40:25.419Z,99092.30
2022-11-04T16:42:54.254Z,99087.89
2022-11-04T16:45:34.839Z,99082.46
2022-11-04T16:48:05.485Z,99084.27
2022-11-04T16:50:33.996Z,99088.98
2022-11-04T16:53:06.776Z,99089.96
2022-11-04T16:55:39.388Z,99088.19
2022-11-04T16:59:23.740Z,99085.26
2022-11-04T17:01:52.270Z,99084.17
2022-11-04T17:04:20.665Z,99086.90
2022-11-04T17:06:48.969Z,99086.17
2022-11-04T17:09:23.045Z,99081.67
2022-11-04T17:11:51.403Z,99080.91
2022-11-04T17:14:19.686Z,99083.77
2022-11-04T17:17:13.277Z,99088.27
2022-11-04T17:23:00.115Z,99079.69
2022-11-04T17:25:30.283Z,99078.17
2022-11-04T17:27:58.874Z,99075.38
2022-11-04T17:31:19.694Z,99076.69
2022-11-04T17:33:48.235Z,99075.66
2022-11-04T17:36:19.385Z,99069.41
2022-11-04T17:39:13.631Z,99066.91
2022-11-04T17:48:36.994Z,99072.46
2022-11-04T17:51:09.089Z,99063.71
2022-11-04T17:54:02.976Z,99065.95
2022-11-04T18:00:53.340Z,99060.34
2022-11-04T18:03:21.733Z,99059.72
2022-11-04T18:05:59.110Z,99056.06
2022-11-04T18:08:27.431Z,99053.20
2022-11-04T18:11:01.564Z,99053.14
2022-11-04T18:13:30.293Z,99058.02
2022-11-04T18:15:58.700Z,99061.21
2022-11-04T18:18:27.045Z,99056.77
2022-11-04T18:21:03.763Z,99044.38
2022-11-04T18:23:32.184Z,99031.60
2022-11-04T18:26:00.580Z,99036.65
2022-11-04T18:29:44.269Z,99038.42
2022-11-04T18:32:38.097Z,99044.44
2022-11-04T18:37:59.881Z,99055.17
2022-11-04T18:40:28.310Z,99054.15
2022-11-04T18:42:56.790Z,99054.20
2022-11-04T18:45:25.215Z,99051.79
2022-11-04T18:47:53.694Z,99057.57
2022-11-04T18:50:22.134Z,99069.07
2022-11-04T18:52:55.289Z,99071.80
2022-11-04T18:55:24.324Z,99074.35
2022-11-04T18:57:55.795Z,99077.52
2022-11-04T19:00:24.482Z,99078.23
2022-11-04T19:02:52.855Z,99076.16
2022-11-04T19:10:19.038Z,99074.22
2022-11-04T19:13:06.173Z,99073.17
2022-11-04T19:15:34.899Z,99074.23
2022-11-04T19:18:28.796Z,99077.95
2022-11-04T19:20:57.254Z,99079.17
2022-11-04T19:31:43.147Z,99080.59
2022-11-04T19:34:36.962Z,99090.74
2022-11-04T19:37:05.443Z,99089.63
2022-11-04T19:39:33.750Z,99089.63
2022-11-04T19:51:58.391Z,99080.23
2022-11-04T19:54:28.391Z,99078.85
2022-11-04T19:56:56.755Z,99081.29
2022-11-04T19:59:25.661Z,99088.29
2022-11-04T20:01:54.095Z,99093.48
2022-11-04T20:04:22.596Z,99093.64
2022-11-04T20:06:50.918Z,99091.93
2022-11-04T20:09:20.365Z,99100.67
2022-11-04T20:20:55.760Z,99120.90
2022-11-04T20:23:49.805Z,99107.20
2022-11-04T20:26:22.888Z,99099.73
2022-11-04T20:28:54.515Z,99100.92
2022-11-04T20:35:32.827Z,99107.79
2022-11-04T20:38:01.227Z,99108.05
2022-11-04T20:40:55.173Z,99110.84
2022-11-04T20:46:43.014Z,99113.79
2022-11-04T20:49:12.954Z,99118.88
2022-11-04T20:51:48.591Z,99120.27
2022-11-04T20:54:45.800Z,99119.45
2022-11-04T20:57:17.469Z,99119.58
2022-11-04T20:59:45.791Z,99121.09
2022-11-04T21:02:14.438Z,99124.69
2022-11-04T21:04:44.484Z,99121.43
2022-11-04T21:10:30.947Z,99122.22
2022-11-04T21:12:59.352Z,99113.90
2022-11-04T21:15:43.045Z,99105.55
2022-11-04T21:18:13.245Z,99103.52
2022-11-04T21:20:42.780Z,99107.61
2022-11-04T21:26:35.164Z,99108.20
2022-11-04T21:29:12.385Z,99111.71
2022-11-04T21:31:41.311Z,99112.18
2022-11-04T21:34:35.228Z,99112.45
2022-11-04T21:37:30.049Z,99115.80
2022-11-04T21:40:25.252Z,99120.73
2022-11-04T21:53:41.755Z,99112.73
2022-11-04T21:56:43.664Z,99107.48
2022-11-04T21:59:17.993Z,99108.01
2022-11-04T22:01:47.089Z,99108.23
2022-11-04T22:04:15.666Z,99109.00
2022-11-04T22:06:45.397Z,99112.30
2022-11-04T22:09:13.850Z,99110.46
2022-11-04T22:11:42.286Z,99111.27
2022-11-04T22:14:12.257Z,99107.60
2022-11-04T22:16:41.200Z,99107.92
2022-11-04T22:55:32.095Z,99128.98
2022-11-04T22:58:00.808Z,99137.11
2022-11-04T23:00:29.812Z,99135.42
2022-11-04T23:02:58.534Z,99134.98
2022-11-04T23:05:30.663Z,99136.89
2022-11-04T23:08:00.686Z,99140.38
2022-11-04T23:10:49.306Z,99146.75
2022-11-04T23:13:36.374Z,99144.91
2022-11-04T23:16:23.577Z,99146.66
2022-11-04T23:18:52.205Z,99161.70
2022-11-04T23:31:15.897Z,99177.83
2022-11-04T23:34:03.136Z,99182.25
2022-11-04T23:36:49.964Z,99175.60
2022-11-04T23:39:18.620Z,99175.93
2022-11-04T23:42:05.669Z,99178.89
2022-11-04T23:44:52.631Z,99187.71
2022-11-04T23:47:39.521Z,99189.76
2022-11-04T23:50:27.582Z,99192.23
2022-11-04T23:53:14.740Z,99195.07
2022-11-04T23:56:01.840Z,99201.90
2022-11-04T23:58:48.803Z,99216.62
